Terminal Aerodrome Forecast
Issued by NWS Sterling, VA

Current Version | Previous Version | Text Only | Print | Product List | Glossary Off
Versions: 1 2 3 4 5 6 7 8 9 10 11 12 13 14 15 16 17 18 19 20 21 22 23 24 25 26

000
FTUS41 KLWX 261120
TAFDCA
TAF
KDCA 261120Z 2612/2712 22009KT P6SM FEW130
     FM261600 24016G24KT P6SM SCT060
     FM262000 24014G24KT P6SM VCTS BKN060CB
     FM270000 29005KT P6SM SCT050
     FM270600 04009KT P6SM BKN040
     FM271100 04008KT P6SM BKN030=

USA.gov is the U.S. government's official web portal to all federal, state and local government web resources and services.